Cosco Asia — 3ELQ8 — position and weather

sailwx.info

Track history (hours):
 
Tides and Currents Weather Stations Pressure Air Temp Water Temp Dewpoint Dewpoint Depression Visibility Wind Speed Wind Dir Waves Ship Positions

Cosco Asia

Last reported at 2018-May-21 12:09 UTC. Time now 2018-May-28 01:17 UTC.
Position N 31°06' E 122°19'.

Length 349 m; draft 11.3 m.

Type: Ship (hazmat cat A). MMSI: 356581000.

Date/timePositionNaut miles runAvg speedWind from/ knotsBaromVisibWave heightAir tempDewpointWater temp
2018-May-21 12:09N 31°06' E 122°19'514.9
2018-May-21 11:50N 31°09' E 122°14'513.4
2018-May-21 11:25N 31°12' E 122°09'613.1
2018-May-21 10:56N 31°14' E 122°02'512.6
2018-May-21 10:30N 31°15' E 121°56'712.5
2018-May-21 09:58N 31°17' E 121°48'1110.3
2018-May-21 08:52N 31°22' E 121°37'2 0.1
2018-May-20 03:18N 31°23' E 121°35'0 0.0
2018-May-19 07:10N 31°23' E 121°35'0 0.6
2018-May-19 07:00N 31°23' E 121°35'6 5.1
2018-May-19 05:51N 31°20' E 121°41'3 9.0
2018-May-19 05:29N 31°19' E 121°44'7 9.8
2018-May-19 04:47N 31°16' E 121°52'3 9.5
2018-May-19 04:30N 31°16' E 121°55'510.3
2018-May-19 04:00N 31°15' E 122°01'611.7
2018-May-19 03:30N 31°13' E 122°07'5 9.4
2018-May-19 03:00N 31°10' E 122°12'5 9.7
2018-May-19 02:30N 31°07' E 122°16'4 7.4
2018-May-19 02:00N 31°06' E 122°20'5 8.2
2018-May-19 01:27N 31°06' E 122°26'1410.3
2018-May-19 00:07N 31°17' E 122°35'1 0.6
2018-May-18 22:14N 31°18' E 122°36'0 0.0
2018-May-18 21:32N 31°18' E 122°36'1 0.0
2018-May-17 20:52N 31°19' E 122°36'0 0.1
2018-May-17 20:28N 31°19' E 122°36'0 0.1
2018-May-17 18:22N 31°19' E 122°36'0 0.1
2018-May-17 17:55N 31°19' E 122°36'3 0.2
2018-May-17 01:57N 31°20' E 122°33'6715.4
2018-May-16 21:34N 32°27' E 122°27'  
2018-May-11 19:32N 41°20' E 140°15'111.9
2018-May-11 19:29N 41°20' E 140°16'611.2
2018-May-11 18:58N 41°23' E 140°23'510.8
2018-May-11 18:28N 41°26' E 140°29'510.5
2018-May-11 18:01N 41°28' E 140°34'612.3
2018-May-11 17:31N 41°32' E 140°41'612.7
2018-May-11 17:00N 41°36' E 140°48'611.7
2018-May-11 16:30N 41°38' E 140°55'611.3
2018-May-11 16:01N 41°39' E 141°02'713.5
2018-May-11 15:30N 41°40' E 141°11'713.6
2018-May-11 15:00N 41°41' E 141°21'713.4
2018-May-11 14:30N 41°42' E 141°29'613.1
2018-May-11 14:00N 41°43' E 141°38'611.2
2018-May-11 13:26N 41°43' E 141°46'  
Track history (hours):
 
Tides and Currents Weather Stations Pressure Air Temp Water Temp Dewpoint Dewpoint Depression Visibility Wind Speed Wind Dir Waves Ship Positions

Cosco Asia

Last reported at 2018-May-21 12:09 UTC. Time now 2018-May-28 01:17 UTC.
Position N 31°06' E 122°19'.

Length 349 m; draft 11.3 m.

Type: Ship (hazmat cat A). MMSI: 356581000.

Date/timePositionNaut miles runAvg speedWind from/ knotsBaromVisibWave heightAir tempDewpointWater temp
2018-May-21 12:09N 31°06' E 122°19'514.9
2018-May-21 11:50N 31°09' E 122°14'513.4
2018-May-21 11:25N 31°12' E 122°09'613.1
2018-May-21 10:56N 31°14' E 122°02'512.6
2018-May-21 10:30N 31°15' E 121°56'712.5
2018-May-21 09:58N 31°17' E 121°48'1110.3
2018-May-21 08:52N 31°22' E 121°37'2 0.1
2018-May-20 03:18N 31°23' E 121°35'0 0.0
2018-May-19 07:10N 31°23' E 121°35'0 0.6
2018-May-19 07:00N 31°23' E 121°35'6 5.1
2018-May-19 05:51N 31°20' E 121°41'3 9.0
2018-May-19 05:29N 31°19' E 121°44'7 9.8
2018-May-19 04:47N 31°16' E 121°52'3 9.5
2018-May-19 04:30N 31°16' E 121°55'510.3
2018-May-19 04:00N 31°15' E 122°01'611.7
2018-May-19 03:30N 31°13' E 122°07'5 9.4
2018-May-19 03:00N 31°10' E 122°12'5 9.7
2018-May-19 02:30N 31°07' E 122°16'4 7.4
2018-May-19 02:00N 31°06' E 122°20'5 8.2
2018-May-19 01:27N 31°06' E 122°26'1410.3
2018-May-19 00:07N 31°17' E 122°35'1 0.6
2018-May-18 22:14N 31°18' E 122°36'0 0.0
2018-May-18 21:32N 31°18' E 122°36'1 0.0
2018-May-17 20:52N 31°19' E 122°36'0 0.1
2018-May-17 20:28N 31°19' E 122°36'0 0.1
2018-May-17 18:22N 31°19' E 122°36'0 0.1
2018-May-17 17:55N 31°19' E 122°36'3 0.2
2018-May-17 01:57N 31°20' E 122°33'6715.4
2018-May-16 21:34N 32°27' E 122°27'  
2018-May-11 19:32N 41°20' E 140°15'111.9
2018-May-11 19:29N 41°20' E 140°16'611.2
2018-May-11 18:58N 41°23' E 140°23'510.8
2018-May-11 18:28N 41°26' E 140°29'510.5
2018-May-11 18:01N 41°28' E 140°34'612.3
2018-May-11 17:31N 41°32' E 140°41'612.7
2018-May-11 17:00N 41°36' E 140°48'611.7
2018-May-11 16:30N 41°38' E 140°55'611.3
2018-May-11 16:01N 41°39' E 141°02'713.5
2018-May-11 15:30N 41°40' E 141°11'713.6
2018-May-11 15:00N 41°41' E 141°21'713.4
2018-May-11 14:30N 41°42' E 141°29'613.1
2018-May-11 14:00N 41°43' E 141°38'611.2
2018-May-11 13:26N 41°43' E 141°46'  

Dump ship's entire track history